createdAt,value
2023-02-11T00:01:55.617Z,102074.22
2023-02-11T00:04:22.569Z,102077.00
2023-02-11T00:06:49.147Z,102076.72
2023-02-11T00:09:15.746Z,102076.88
2023-02-11T00:11:42.347Z,102073.59
2023-02-11T00:14:10.842Z,102068.59
2023-02-11T00:16:37.562Z,102041.81
2023-02-11T00:19:06.341Z,102056.66
2023-02-11T00:21:33.425Z,102044.19
2023-02-11T00:24:02.215Z,102045.16
2023-02-11T00:26:31.812Z,102027.16
2023-02-11T00:28:59.087Z,102015.88
2023-02-11T00:31:26.639Z,102010.66
2023-02-11T00:33:53.932Z,102005.53
2023-02-11T00:36:23.702Z,101993.34
2023-02-11T00:38:51.759Z,101989.88
2023-02-11T00:41:19.070Z,101981.16
2023-02-11T00:43:45.865Z,101969.88
2023-02-11T00:46:12.815Z,101985.44
2023-02-11T00:48:42.214Z,102009.94
2023-02-11T00:51:09.633Z,102015.06
2023-02-11T00:53:36.688Z,102016.84
2023-02-11T00:56:06.828Z,102005.53
2023-02-11T00:58:34.363Z,102014.09
2023-02-11T01:01:01.020Z,101994.28
2023-02-11T01:03:27.755Z,101983.09
2023-02-11T01:05:55.943Z,101981.47
2023-02-11T01:08:22.738Z,101992.69
2023-02-11T01:11:00.830Z,101980.44
2023-02-11T01:13:29.040Z,101985.88
2023-02-11T01:15:56.494Z,101968.47
2023-02-11T01:18:26.823Z,101981.47
2023-02-11T01:20:56.543Z,101987.53
2023-02-11T01:23:23.177Z,101998.09
2023-02-11T01:25:50.425Z,102009.28
2023-02-11T01:28:38.224Z,102000.59
2023-02-11T01:31:04.949Z,102005.94
2023-02-11T01:33:34.274Z,102003.31
2023-02-11T01:36:03.157Z,101998.91
2023-02-11T01:38:30.794Z,102002.19
2023-02-11T01:41:00.434Z,102014.50
2023-02-11T01:43:29.704Z,102013.59
2023-02-11T01:46:01.717Z,101995.28
2023-02-11T01:48:32.054Z,101976.22
2023-02-11T01:51:03.492Z,101981.47
2023-02-11T01:53:49.204Z,101965.88
2023-02-11T01:56:37.582Z,101983.38
2023-02-11T01:59:09.530Z,101982.72
2023-02-11T02:01:38.083Z,101978.28
2023-02-11T02:04:05.605Z,101977.25
2023-02-11T02:06:45.471Z,101989.69
2023-02-11T02:09:27.203Z,101984.28
2023-02-11T02:11:54.008Z,101991.31
2023-02-11T02:14:20.683Z,101997.56
2023-02-11T02:16:47.330Z,101992.81
2023-02-11T02:19:51.036Z,101986.09
2023-02-11T02:22:26.745Z,101986.28
2023-02-11T02:25:13.678Z,101973.94
2023-02-11T02:28:14.727Z,101965.94
2023-02-11T02:31:00.011Z,101961.94
2023-02-11T02:33:51.288Z,101964.53
2023-02-11T02:36:30.984Z,101955.78
2023-02-11T02:39:01.215Z,101950.72
2023-02-11T02:41:33.037Z,101942.16
2023-02-11T02:44:00.216Z,101927.97
2023-02-11T02:46:32.226Z,101927.28
2023-02-11T02:48:59.048Z,101929.78
2023-02-11T02:51:47.351Z,101920.50
2023-02-11T02:54:39.241Z,101911.66
2023-02-11T02:57:30.175Z,101899.75
2023-02-11T03:00:18.299Z,101895.47
2023-02-11T03:02:50.963Z,101902.53
2023-02-11T03:05:47.614Z,101897.13
2023-02-11T03:08:30.191Z,101890.09
2023-02-11T03:10:58.183Z,101894.75
2023-02-11T03:13:28.099Z,101888.44
2023-02-11T03:15:56.938Z,101889.50
2023-02-11T03:18:26.485Z,101895.78
2023-02-11T03:20:54.472Z,101884.25
2023-02-11T03:23:29.562Z,101893.84
2023-02-11T03:26:03.462Z,101889.53
2023-02-11T03:28:39.004Z,101879.38
2023-02-11T03:31:13.008Z,101873.06
2023-02-11T03:33:54.812Z,101880.16
2023-02-11T03:36:27.519Z,101888.84
2023-02-11T03:38:56.976Z,101875.03
2023-02-11T03:41:24.669Z,101880.16
2023-02-11T03:43:54.449Z,101882.91
2023-02-11T03:46:27.387Z,101886.34
2023-02-11T03:48:56.589Z,101892.72
2023-02-11T03:51:24.393Z,101896.16
2023-02-11T03:53:53.308Z,101884.03
2023-02-11T03:56:22.450Z,101881.47
2023-02-11T03:58:49.195Z,101880.44
2023-02-11T04:01:15.948Z,101882.22
2023-02-11T04:03:42.842Z,101882.44
2023-02-11T04:06:09.551Z,101883.38
2023-02-11T04:08:36.139Z,101864.16
2023-02-11T04:11:02.816Z,101858.06
2023-02-11T04:13:29.522Z,101868.47
2023-02-11T04:15:56.162Z,101857.38
2023-02-11T04:18:22.781Z,101853.91
2023-02-11T04:20:50.515Z,101852.03
2023-02-11T04:23:17.228Z,101851.31
2023-02-11T04:25:43.854Z,101843.38
2023-02-11T04:28:10.512Z,101843.50
2023-02-11T04:30:37.152Z,101835.69
2023-02-11T04:33:03.798Z,101825.13
2023-02-11T04:35:30.426Z,101831.44
2023-02-11T04:37:57.481Z,101831.47
2023-02-11T04:40:24.188Z,101822.59
2023-02-11T04:42:50.807Z,101810.50
2023-02-11T04:45:17.534Z,101801.03
2023-02-11T04:47:44.157Z,101792.50
2023-02-11T04:50:10.861Z,101794.94
2023-02-11T04:52:37.531Z,101792.44
2023-02-11T04:55:04.476Z,101788.88
2023-02-11T04:57:31.134Z,101784.38
2023-02-11T04:59:57.792Z,101781.13
2023-02-11T05:02:24.495Z,101778.63
2023-02-11T05:04:51.116Z,101786.53
2023-02-11T05:07:17.748Z,101776.03
2023-02-11T05:09:44.422Z,101786.56
2023-02-11T05:12:11.070Z,101797.91
2023-02-11T05:14:37.721Z,101794.59
2023-02-11T05:17:04.322Z,101792.91
2023-02-11T05:19:32.042Z,101779.91
2023-02-11T05:22:03.028Z,101775.56
2023-02-11T05:24:32.383Z,101765.97
2023-02-11T05:26:59.221Z,101765.19
2023-02-11T05:29:25.917Z,101768.72
2023-02-11T05:31:52.690Z,101753.94
2023-02-11T05:34:19.339Z,101756.56
2023-02-11T05:36:45.968Z,101752.22
2023-02-11T05:39:12.685Z,101756.72
2023-02-11T05:41:39.338Z,101758.28
2023-02-11T05:44:06.035Z,101766.28
2023-02-11T05:46:32.747Z,101757.59
2023-02-11T05:48:59.874Z,101764.59
2023-02-11T05:51:26.484Z,101773.41
2023-02-11T05:53:53.403Z,101760.31
2023-02-11T05:56:20.041Z,101751.63
2023-02-11T05:58:46.715Z,101765.56
2023-02-11T06:01:13.367Z,101760.44
2023-02-11T06:03:40.142Z,101744.75
2023-02-11T06:06:10.695Z,101758.69
2023-02-11T06:08:39.197Z,101751.03
2023-02-11T06:11:06.039Z,101745.75
2023-02-11T06:13:32.642Z,101746.56
2023-02-11T06:16:00.782Z,101752.63
2023-02-11T06:18:27.918Z,101758.03
2023-02-11T06:20:54.551Z,101732.75
2023-02-11T06:23:21.809Z,101751.06
2023-02-11T06:25:49.093Z,101746.59
2023-02-11T06:28:16.307Z,101759.72
2023-02-11T06:30:43.030Z,101757.97
2023-02-11T06:33:09.723Z,101762.34
2023-02-11T06:35:38.798Z,101775.44
2023-02-11T06:38:05.449Z,101764.09
2023-02-11T06:40:32.116Z,101759.81
2023-02-11T06:42:58.748Z,101766.00
2023-02-11T06:45:25.391Z,101769.63
2023-02-11T06:47:52.842Z,101763.50
2023-02-11T06:50:19.531Z,101760.91
2023-02-11T06:52:46.274Z,101740.84
2023-02-11T06:55:13.286Z,101737.25
2023-02-11T06:57:40.032Z,101734.66
2023-02-11T07:00:07.220Z,101731.19
2023-02-11T07:02:33.960Z,101715.44
2023-02-11T07:05:00.606Z,101726.00
2023-02-11T07:07:27.545Z,101715.44
2023-02-11T07:09:54.181Z,101711.00
2023-02-11T07:12:20.867Z,101702.47
2023-02-11T07:14:47.503Z,101715.53
2023-02-11T07:17:14.172Z,101720.78
2023-02-11T07:19:40.900Z,101722.63
2023-02-11T07:22:07.499Z,101740.06
2023-02-11T07:24:34.137Z,101727.75
2023-02-11T07:27:00.717Z,101734.75
2023-02-11T07:29:27.347Z,101743.56
2023-02-11T07:31:54.067Z,101728.66
2023-02-11T07:34:20.761Z,101731.25
2023-02-11T07:36:48.976Z,101722.53
2023-02-11T07:39:16.049Z,101722.59
2023-02-11T07:41:44.460Z,101725.19
2023-02-11T07:44:11.042Z,101736.69
2023-02-11T07:46:37.786Z,101745.41
2023-02-11T07:49:04.444Z,101757.66
2023-02-11T07:51:31.368Z,101766.38
2023-02-11T07:53:59.609Z,101772.63
2023-02-11T07:56:26.901Z,101764.75
2023-02-11T07:58:54.484Z,101776.16
2023-02-11T08:01:25.358Z,101775.31
2023-02-11T08:03:52.686Z,101768.41
2023-02-11T08:06:21.021Z,101772.81
2023-02-11T08:08:47.820Z,101753.59
2023-02-11T08:11:22.645Z,101760.63
2023-02-11T08:13:49.260Z,101762.31
2023-02-11T08:16:24.724Z,101759.78
2023-02-11T08:18:52.157Z,101772.03
2023-02-11T08:21:19.666Z,101765.91
2023-02-11T08:23:49.805Z,101791.31
2023-02-11T08:26:28.432Z,101780.03
2023-02-11T08:28:56.730Z,101779.06
2023-02-11T08:31:26.144Z,101773.84
2023-02-11T08:33:54.613Z,101771.28
2023-02-11T08:36:23.839Z,101767.94
2023-02-11T08:38:50.566Z,101772.25
2023-02-11T08:41:17.934Z,101762.72
2023-02-11T08:43:45.508Z,101767.13
2023-02-11T08:46:16.951Z,101766.22
2023-02-11T08:48:44.387Z,101767.19
2023-02-11T08:51:18.303Z,101768.13
2023-02-11T08:53:45.899Z,101777.84
2023-02-11T08:56:19.030Z,101782.06
2023-02-11T08:58:46.084Z,101764.75
2023-02-11T09:01:13.368Z,101792.75
2023-02-11T09:03:40.371Z,101788.34
2023-02-11T09:06:08.685Z,101787.53
2023-02-11T09:08:36.707Z,101801.50
2023-02-11T09:11:13.461Z,101798.13
2023-02-11T09:13:41.918Z,101792.78
2023-02-11T09:16:13.950Z,101781.44
2023-02-11T09:18:40.546Z,101783.25
2023-02-11T09:21:09.444Z,101794.59
2023-02-11T09:23:41.719Z,101805.00
2023-02-11T09:26:10.546Z,101794.69
2023-02-11T09:28:37.278Z,101792.16
2023-02-11T09:31:08.635Z,101799.88
2023-02-11T09:33:35.895Z,101813.00
2023-02-11T09:36:06.757Z,101818.25
2023-02-11T09:38:33.727Z,101808.81
2023-02-11T09:41:03.970Z,101831.34
2023-02-11T09:43:39.353Z,101832.38
2023-02-11T09:46:06.377Z,101840.22
2023-02-11T09:48:38.734Z,101842.03
2023-02-11T09:51:06.174Z,101843.00
2023-02-11T09:53:37.449Z,101837.72
2023-02-11T09:56:11.470Z,101834.28
2023-02-11T09:58:41.534Z,101826.56
2023-02-11T10:01:57.445Z,101826.44
2023-02-11T10:04:48.531Z,101824.72
2023-02-11T10:07:29.848Z,101839.63
2023-02-11T10:10:13.586Z,101826.41
2023-02-11T10:12:58.240Z,101824.88
2023-02-11T10:15:39.973Z,101825.00
2023-02-11T10:18:25.696Z,101829.25
2023-02-11T10:21:01.552Z,101827.59
2023-02-11T10:23:31.805Z,101813.59
2023-02-11T10:26:00.285Z,101808.44
2023-02-11T10:28:32.156Z,101810.16
2023-02-11T10:31:08.637Z,101796.28
2023-02-11T10:33:54.171Z,101791.19
2023-02-11T10:36:24.019Z,101789.34
2023-02-11T10:38:50.683Z,101779.09
2023-02-11T10:41:22.016Z,101795.59
2023-02-11T10:43:49.806Z,101808.81
2023-02-11T10:46:19.771Z,101818.47
2023-02-11T10:48:50.541Z,101818.56
2023-02-11T10:51:27.378Z,101808.97
2023-02-11T10:54:08.327Z,101802.00
2023-02-11T10:56:36.846Z,101793.22
2023-02-11T10:59:29.673Z,101787.06
2023-02-11T11:02:06.943Z,101793.97
2023-02-11T11:04:33.738Z,101777.53
2023-02-11T11:07:23.709Z,101777.53
2023-02-11T11:09:52.482Z,101783.75
2023-02-11T11:12:30.281Z,101777.69
2023-02-11T11:15:00.045Z,101771.56
2023-02-11T11:17:29.686Z,101778.56
2023-02-11T11:20:14.425Z,101773.50
2023-02-11T11:22:41.982Z,101784.09
2023-02-11T11:25:26.947Z,101773.72
2023-02-11T11:27:56.338Z,101776.34
2023-02-11T11:30:27.144Z,101779.97
2023-02-11T11:32:53.999Z,101787.91
2023-02-11T11:35:24.959Z,101777.47
2023-02-11T11:38:01.355Z,101802.91
2023-02-11T11:40:34.493Z,101786.25
2023-02-11T11:43:13.192Z,101800.53
2023-02-11T11:45:40.498Z,101806.69
2023-02-11T11:48:13.625Z,101812.06
2023-02-11T11:50:44.396Z,101825.19
2023-02-11T11:53:24.801Z,101840.94
2023-02-11T11:56:14.609Z,101833.22
2023-02-11T11:58:41.407Z,101826.22
2023-02-11T12:01:20.163Z,101825.31
2023-02-11T12:04:08.423Z,101816.66
2023-02-11T12:06:59.007Z,101818.41
2023-02-11T12:09:47.496Z,101821.84
2023-02-11T12:16:41.988Z,101844.63
2023-02-11T12:19:36.576Z,101855.19
2023-02-11T12:22:23.364Z,101849.13
2023-02-11T12:25:05.349Z,101849.09
2023-02-11T12:27:37.722Z,101850.81
2023-02-11T12:30:14.435Z,101861.31
2023-02-11T12:33:04.844Z,101859.59
2023-02-11T12:35:52.175Z,101859.56
2023-02-11T12:38:37.625Z,101848.25
2023-02-11T12:41:39.423Z,101861.25
2023-02-11T12:44:07.667Z,101857.75
2023-02-11T12:46:51.881Z,101861.25
2023-02-11T12:49:50.734Z,101861.44
2023-02-11T12:52:32.546Z,101864.09
2023-02-11T12:55:21.017Z,101860.47
2023-02-11T12:57:49.119Z,101863.13
2023-02-11T13:00:22.190Z,101858.72
2023-02-11T13:03:10.969Z,101863.09
2023-02-11T13:05:44.527Z,101869.28
2023-02-11T13:08:28.061Z,101871.94
2023-02-11T13:10:58.076Z,101863.22
2023-02-11T13:13:33.695Z,101872.94
2023-02-11T13:16:12.938Z,101865.88
2023-02-11T13:19:06.839Z,101873.81
2023-02-11T13:21:56.920Z,101873.84
2023-02-11T13:28:40.310Z,101857.34
2023-02-11T13:31:28.848Z,101870.47
2023-02-11T13:33:55.800Z,101872.31
2023-02-11T13:36:25.224Z,101875.84
2023-02-11T13:38:59.933Z,101869.81
2023-02-11T13:41:36.980Z,101872.44
2023-02-11T13:44:08.653Z,101868.16
2023-02-11T13:47:02.276Z,101861.19
2023-02-11T13:49:40.878Z,101852.38
2023-02-11T13:52:22.716Z,101852.38
2023-02-11T13:54:52.721Z,101849.72
2023-02-11T13:57:19.265Z,101852.28
2023-02-11T13:59:48.678Z,101856.75
2023-02-11T14:02:49.640Z,101852.34
2023-02-11T14:05:46.193Z,101857.41
2023-02-11T14:08:37.598Z,101863.56
2023-02-11T14:11:30.671Z,101874.97
2023-02-11T14:14:24.431Z,101863.53
2023-02-11T14:17:08.019Z,101870.56
2023-02-11T14:19:43.929Z,101879.34
2023-02-11T14:22:10.569Z,101884.59
2023-02-11T14:24:37.199Z,101887.91
2023-02-11T14:27:11.255Z,101900.22
2023-02-11T14:29:46.183Z,101895.88
2023-02-11T14:32:41.046Z,101901.22
2023-02-11T14:35:15.162Z,101901.94
2023-02-11T14:37:50.052Z,101914.03
2023-02-11T14:40:39.189Z,101919.50
2023-02-11T14:43:20.424Z,101920.25
2023-02-11T14:45:51.167Z,101924.63
2023-02-11T14:48:19.736Z,101918.41
2023-02-11T14:51:02.334Z,101914.13
2023-02-11T14:53:31.543Z,101929.09
2023-02-11T14:55:59.237Z,101930.81
2023-02-11T14:58:25.856Z,101935.16
2023-02-11T15:01:06.509Z,101940.31
2023-02-11T15:03:34.889Z,101940.38
2023-02-11T15:06:07.498Z,101949.94
2023-02-11T15:08:36.984Z,101956.16
2023-02-11T15:11:10.028Z,101961.31
2023-02-11T15:13:36.862Z,101963.84
2023-02-11T15:16:08.504Z,101958.75
2023-02-11T15:18:40.991Z,101954.41
2023-02-11T15:21:08.217Z,101960.38
2023-02-11T15:23:35.388Z,101974.34
2023-02-11T15:26:05.703Z,101969.09
2023-02-11T15:28:34.218Z,101973.47
2023-02-11T15:31:05.993Z,101966.47
2023-02-11T15:33:33.456Z,101963.94
2023-02-11T15:36:00.842Z,101967.44
2023-02-11T15:38:28.218Z,101980.56
2023-02-11T15:41:02.775Z,101979.72
2023-02-11T15:43:51.054Z,101992.75
2023-02-11T15:46:21.305Z,101994.41
2023-02-11T15:48:50.305Z,101998.84
2023-02-11T15:51:29.445Z,102002.31
2023-02-11T15:53:58.773Z,101999.44
2023-02-11T15:56:35.390Z,102002.06
2023-02-11T15:59:16.646Z,101999.66
2023-02-11T16:01:44.849Z,102014.59
2023-02-11T16:04:23.812Z,102017.19
2023-02-11T16:06:51.859Z,102010.84
2023-02-11T16:09:34.307Z,102009.94
2023-02-11T16:12:21.365Z,102019.72
2023-02-11T16:14:52.230Z,102010.09
2023-02-11T16:17:19.059Z,102017.84
2023-02-11T16:19:47.930Z,102013.41
2023-02-11T16:22:20.365Z,102023.94
2023-02-11T16:24:48.768Z,102024.84
2023-02-11T16:27:30.447Z,102035.19
2023-02-11T16:29:57.772Z,102038.94
2023-02-11T16:32:29.056Z,102038.88
2023-02-11T16:35:01.395Z,102050.09
2023-02-11T16:37:28.209Z,102064.25
2023-02-11T16:39:55.965Z,102061.38
2023-02-11T16:42:23.347Z,102059.66
2023-02-11T16:44:50.130Z,102062.09
2023-02-11T16:47:23.703Z,102065.66
2023-02-11T16:49:50.531Z,102058.78
2023-02-11T16:52:18.287Z,102063.19
2023-02-11T16:54:45.168Z,102072.78
2023-02-11T16:57:15.310Z,102062.97
2023-02-11T16:59:42.541Z,102067.28
2023-02-11T17:02:29.153Z,102067.41
2023-02-11T17:04:58.779Z,102075.59
2023-02-11T17:07:25.386Z,102077.03
2023-02-11T17:14:15.610Z,102077.84
2023-02-11T17:16:42.996Z,102083.91
2023-02-11T17:19:14.177Z,102084.03
2023-02-11T17:21:45.107Z,102094.78
2023-02-11T17:24:12.202Z,102096.31
2023-02-11T17:26:39.349Z,102095.66
2023-02-11T17:29:07.185Z,102092.16
2023-02-11T17:31:34.244Z,102093.63
2023-02-11T17:34:01.339Z,102094.56
2023-02-11T17:36:28.089Z,102092.75
2023-02-11T17:38:55.116Z,102094.69
2023-02-11T17:41:21.725Z,102106.06
2023-02-11T17:43:48.330Z,102108.53
2023-02-11T17:46:15.182Z,102111.97
2023-02-11T17:48:41.812Z,102110.31
2023-02-11T17:51:32.388Z,102121.63
2023-02-11T17:54:01.322Z,102121.69
2023-02-11T17:56:29.896Z,102112.03
2023-02-11T17:58:56.546Z,102122.56
2023-02-11T18:01:23.303Z,102133.22
2023-02-11T18:03:50.077Z,102137.59
2023-02-11T18:06:17.074Z,102140.19
2023-02-11T18:08:43.871Z,102138.59
2023-02-11T18:11:12.141Z,102143.59
2023-02-11T18:13:38.978Z,102147.22
2023-02-11T18:16:06.287Z,102154.19
2023-02-11T18:18:33.094Z,102160.50
2023-02-11T18:21:01.715Z,102158.59
2023-02-11T18:23:28.696Z,102168.41
2023-02-11T18:25:55.427Z,102173.59
2023-02-11T18:28:22.224Z,102170.09
2023-02-11T18:30:48.974Z,102177.09
2023-02-11T18:33:15.597Z,102172.56
2023-02-11T18:35:43.677Z,102180.47
2023-02-11T18:38:10.540Z,102190.31
2023-02-11T18:40:40.801Z,102186.59
2023-02-11T18:43:07.705Z,102184.84
2023-02-11T18:45:34.626Z,102186.53
2023-02-11T18:48:03.625Z,102202.41
2023-02-11T18:50:30.275Z,102200.56
2023-02-11T18:52:56.874Z,102206.75
2023-02-11T18:55:25.777Z,102203.88
2023-02-11T18:57:52.941Z,102222.50
2023-02-11T19:00:20.856Z,102221.31
2023-02-11T19:02:48.039Z,102231.00
2023-02-11T19:05:15.669Z,102232.03
2023-02-11T19:07:42.671Z,102233.72
2023-02-11T19:10:10.171Z,102240.97
2023-02-11T19:12:39.167Z,102241.78
2023-02-11T19:15:09.316Z,102249.56
2023-02-11T19:17:36.268Z,102252.03
2023-02-11T19:20:06.004Z,102250.25
2023-02-11T19:22:32.715Z,102251.53
2023-02-11T19:24:59.620Z,102263.50
2023-02-11T19:27:26.316Z,102264.19
2023-02-11T19:29:53.073Z,102268.84
2023-02-11T19:32:19.809Z,102263.22
2023-02-11T19:34:46.510Z,102253.44
2023-02-11T19:37:13.526Z,102258.75
2023-02-11T19:39:41.171Z,102253.63
2023-02-11T19:42:07.893Z,102268.47
2023-02-11T19:44:34.504Z,102271.75
2023-02-11T19:47:01.789Z,102280.44
2023-02-11T19:49:28.414Z,102278.66
2023-02-11T19:51:58.235Z,102287.38
2023-02-11T19:54:31.842Z,102291.69
2023-02-11T19:56:58.801Z,102295.91
2023-02-11T19:59:25.504Z,102306.41
2023-02-11T20:01:53.889Z,102303.81
2023-02-11T20:04:20.626Z,102306.66
2023-02-11T20:06:49.051Z,102310.97
2023-02-11T20:09:15.908Z,102315.03
2023-02-11T20:11:42.694Z,102312.28
2023-02-11T20:14:12.565Z,102313.19
2023-02-11T20:16:48.095Z,102310.66
2023-02-11T20:19:18.127Z,102316.53
2023-02-11T20:21:47.329Z,102316.66
2023-02-11T20:24:15.469Z,102327.81
2023-02-11T20:26:42.568Z,102346.06
2023-02-11T20:29:09.292Z,102341.88
2023-02-11T20:31:36.818Z,102340.94
2023-02-11T20:34:03.807Z,102343.41
2023-02-11T20:36:35.522Z,102332.09
2023-02-11T20:39:04.883Z,102334.88
2023-02-11T20:41:34.346Z,102342.09
2023-02-11T20:44:05.789Z,102341.91
2023-02-11T20:46:34.039Z,102343.41
2023-02-11T20:49:00.992Z,102345.28
2023-02-11T20:51:30.546Z,102350.56
2023-02-11T20:53:57.745Z,102350.00
2023-02-11T20:56:27.339Z,102353.41
2023-02-11T20:58:54.728Z,102354.31
2023-02-11T21:01:30.761Z,102361.19
2023-02-11T21:03:59.935Z,102365.63
2023-02-11T21:06:31.612Z,102369.88
2023-02-11T21:08:58.347Z,102375.94
2023-02-11T21:11:25.733Z,102381.13
2023-02-11T21:13:52.324Z,102386.31
2023-02-11T21:16:22.874Z,102378.38
2023-02-11T21:18:52.422Z,102389.97
2023-02-11T21:21:19.529Z,102395.00
2023-02-11T21:23:46.576Z,102391.50
2023-02-11T21:26:13.876Z,102395.00
2023-02-11T21:28:41.207Z,102407.25
2023-02-11T21:31:11.840Z,102406.31
2023-02-11T21:33:51.757Z,102412.44
2023-02-11T21:36:18.921Z,102405.38
2023-02-11T21:38:56.280Z,102405.66
2023-02-11T21:41:23.266Z,102414.94
2023-02-11T21:43:50.754Z,102414.22
2023-02-11T21:53:27.036Z,102429.44
2023-02-11T21:56:08.106Z,102437.34
2023-02-11T21:58:35.598Z,102437.97
2023-02-11T22:01:02.770Z,102447.34
2023-02-11T22:03:29.542Z,102449.06
2023-02-11T22:05:56.512Z,102459.69
2023-02-11T22:08:23.380Z,102465.78
2023-02-11T22:10:50.146Z,102463.16
2023-02-11T22:13:16.800Z,102460.38
2023-02-11T22:15:43.712Z,102468.91
2023-02-11T22:18:10.350Z,102465.78
2023-02-11T22:20:37.047Z,102470.13
2023-02-11T22:23:03.762Z,102472.56
2023-02-11T22:25:30.444Z,102475.16
2023-02-11T22:27:57.394Z,102483.78
2023-02-11T22:30:24.283Z,102486.25
2023-02-11T22:32:51.266Z,102492.38
2023-02-11T22:35:18.325Z,102494.13
2023-02-11T22:37:45.236Z,102490.56
2023-02-11T22:40:12.792Z,102492.25
2023-02-11T22:42:39.509Z,102504.38
2023-02-11T22:45:07.466Z,102506.91
2023-02-11T22:47:34.347Z,102509.50
2023-02-11T22:50:01.201Z,102517.34
2023-02-11T22:52:28.402Z,102519.09
2023-02-11T22:54:55.308Z,102517.31
2023-02-11T22:57:21.980Z,102518.97
2023-02-11T22:59:49.114Z,102525.00
2023-02-11T23:02:15.884Z,102528.47
2023-02-11T23:04:43.052Z,102525.81
2023-02-11T23:07:09.748Z,102525.78
2023-02-11T23:09:36.378Z,102528.28
2023-02-11T23:12:03.059Z,102526.63
2023-02-11T23:14:29.902Z,102531.03
2023-02-11T23:16:56.781Z,102531.03
2023-02-11T23:19:23.975Z,102535.25
2023-02-11T23:21:51.353Z,102534.41
2023-02-11T23:24:18.014Z,102533.88
2023-02-11T23:26:44.930Z,102538.97
2023-02-11T23:29:12.033Z,102537.19
2023-02-11T23:31:40.854Z,102546.88
2023-02-11T23:34:08.049Z,102548.59
2023-02-11T23:36:35.073Z,102547.00
2023-02-11T23:39:01.745Z,102544.22
2023-02-11T23:41:28.847Z,102552.13
2023-02-11T23:43:57.103Z,102553.13
2023-02-11T23:46:25.975Z,102553.56
2023-02-11T23:48:53.292Z,102559.31
2023-02-11T23:51:20.840Z,102566.09
2023-02-11T23:53:49.203Z,102562.72
2023-02-11T23:56:21.632Z,102574.91
2023-02-11T23:58:49.828Z,102572.44
